Flight Track Log - Related Links

Times and Time Zones

All times are in EDT time to prevent confusion due to time zone crossing. See the SWA2975 flight status page for this flight to view local times or setup timezone preferences in your user account.

Time Position Orientation Groundspeed Altitude Reporting Facility
EDT Latitude Longitude Course Direction KTS MPH feet Rate Location/Type
Fri 10:21:47 PM 41.7710 -87.7760 253° West 172 198 1,800  Level FlightAware ADS-B
Fri 10:22:15 PM 41.7820 -87.8060 296° West 236 272 2,400 1,500 Climbing FlightAware ADS-B
Fri 10:22:27 PM 41.7940 -87.8110 343° North 246 283 2,800 732 Climbing FlightAware ADS-B
Fri 10:22:56 PM 41.8230 -87.7950 22° Northeast 243 280 2,900 146 Climbing FlightAware ADS-B
Fri 10:23:08 PM 41.8290 -87.7790 63° Northeast 237 273 2,900  Level FlightAware ADS-B
Fri 10:23:18 PM 41.8310 -87.7650 79° East 235 270 2,900 1,241 Level FlightAware ADS-B
Fri 10:24:06 PM 41.8280 -87.6930 93° East 258 297 4,100 2,055 Climbing FlightAware ADS-B
Fri 10:24:31 PM 41.8230 -87.6530 100° East 273 314 5,400 3,429 Climbing FlightAware ADS-B
Fri 10:24:55 PM 41.8190 -87.6110 97° East 279 321 6,900 3,808 Climbing FlightAware ADS-B
Fri 10:25:23 PM 41.8140 -87.5620 98° East 282 325 8,700 3,465 Climbing FlightAware ADS-B
Fri 10:26:06 PM 41.8070 -87.4870 97° East 298 343 11,000 2,384 Climbing FlightAware ADS-B
Fri 10:26:36 PM 41.8000 -87.4280 99° East 346 398 11,600 1,360 Climbing FlightAware ADS-B
Fri 10:27:21 PM 41.7890 -87.3220 98° East 396 456 12,700 2,207 Climbing FlightAware ADS-B
Fri 10:28:03 PM 41.7790 -87.2200 97° East 406 467 14,800 2,791 Climbing FlightAware ADS-B
Fri 10:28:47 PM 41.7670 -87.1080 98° East 421 484 16,700 2,460 Climbing FlightAware ADS-B
Fri 10:29:43 PM 41.7630 -86.9640 92° East 440 506 18,900 2,258 Climbing FlightAware ADS-B
Fri 10:30:20 PM 41.7640 -86.8600 89° East 453 521 20,200 2,143 Climbing FlightAware ADS-B
Fri 10:31:07 PM 41.7660 -86.7320 89° East 460 529 21,900 1,793 Climbing FlightAware ADS-B
Fri 10:31:47 PM 41.7670 -86.6130 89° East 484 557 22,800 1,704 Climbing FlightAware ADS-B
Fri 10:32:28 PM 41.7680 -86.4840 89° East 491 565 24,200 1,950 Climbing FlightAware ADS-B
Fri 10:33:07 PM 41.7690 -86.3700 89° East 496 571 25,400 1,786 Climbing FlightAware ADS-B
Fri 10:33:52 PM 41.7830 -86.2270 82° East 509 586 26,700 1,685 Climbing FlightAware ADS-B
Fri 10:34:36 PM 41.8010 -86.0920 80° East 513 590 27,900 1,341 Climbing FlightAware ADS-B
Fri 10:35:17 PM 41.8180 -85.9630 80° East 526 605 28,600 1,120 Climbing FlightAware ADS-B
Fri 10:35:51 PM 41.8330 -85.8460 80° East 533 613 29,300 1,658 Climbing FlightAware ADS-B
Fri 10:36:33 PM 41.8510 -85.7100 80° East 527 606 30,700 2,024 Climbing FlightAware ADS-B
Fri 10:37:14 PM 41.8670 -85.5850 80° East 515 593 32,100 1,862 Climbing FlightAware ADS-B
Fri 10:38:00 PM 41.8850 -85.4460 80° East 508 585 33,400 1,412 Climbing FlightAware ADS-B
Fri 10:38:39 PM 41.9010 -85.3170 80° East 513 590 34,100 1,013 Climbing FlightAware ADS-B
Fri 10:39:17 PM 41.9160 -85.1970 80° East 520 598 34,700 867 Climbing FlightAware ADS-B
Fri 10:40:02 PM 41.9320 -85.0680 80° East 526 605 35,300 1,011 Climbing FlightAware ADS-B
Fri 10:40:52 PM 41.9530 -84.8960 81° East 529 609 36,300 1,133 Climbing FlightAware ADS-B
Fri 10:41:32 PM 41.9680 -84.7700 81° East 528 608 37,000 928 Climbing FlightAware ADS-B
Fri 10:42:29 PM 41.9900 -84.5850 81° East 530 610 37,800 772 Climbing FlightAware ADS-B
Fri 10:43:13 PM 42.0080 -84.4350 81° East 533 613 38,300 698 Climbing FlightAware ADS-B
Fri 10:43:55 PM 42.0240 -84.2960 81° East 534 615 38,800 488 Climbing FlightAware ADS-B
Fri 10:44:39 PM 42.0400 -84.1520 81° East 534 615 39,000 152 Climbing FlightAware ADS-B
Fri 10:45:14 PM 42.0530 -84.0440 81° East 532 612 39,000  Level FlightAware ADS-B
Fri 10:45:52 PM 42.0670 -83.9140 82° East 531 611 39,000  Level FlightAware ADS-B
Fri 10:46:35 PM 42.0830 -83.7760 81° East 529 609 39,000  Level FlightAware ADS-B
Fri 10:47:11 PM 42.0950 -83.6700 81° East 528 608 39,000  Level FlightAware ADS-B
Fri 10:47:48 PM 42.1060 -83.5630 82° East 528 608 39,000  Level FlightAware ADS-B
Fri 10:48:33 PM 42.1230 -83.4130 81° East 529 609 39,000  Level FlightAware ADS-B
Fri 10:49:15 PM 42.1370 -83.2810 82° East 529 609 39,000  Level FlightAware ADS-B
Fri 10:49:48 PM 42.1480 -83.1720 82° East 530 610 39,000  Level FlightAware ADS-B
Fri 10:50:37 PM 42.1650 -83.0140 82° East 531 611 39,000  Level FlightAware ADS-B
Fri 10:51:17 PM 42.1790 -82.8800 82° East 531 611 39,000  Level FlightAware ADS-B
Fri 10:51:58 PM 42.1930 -82.7440 82° East 532 612 39,000  Level FlightAware ADS-B
Fri 10:52:41 PM 42.2070 -82.6070 82° East 531 611 39,000  Level FlightAware ADS-B
Fri 10:53:26 PM 42.2210 -82.4580 83° East 532 612 39,000  Level FlightAware ADS-B
Fri 10:54:04 PM 42.2330 -82.3380 82° East 532 612 39,000  Level FlightAware ADS-B
Fri 10:54:41 PM 42.2450 -82.2130 83° East 532 612 39,000  Level FlightAware ADS-B
Fri 10:55:22 PM 42.2580 -82.0790 82° East 532 612 39,000  Level FlightAware ADS-B
Fri 10:56:04 PM 42.2710 -81.9410 83° East 532 612 39,000  Level FlightAware ADS-B
Fri 10:56:42 PM 42.2830 -81.8180 82° East 531 611 39,000  Level FlightAware ADS-B
Fri 10:57:18 PM 42.2950 -81.6930 83° East 530 610 39,000  Level FlightAware ADS-B
Fri 10:58:01 PM 42.3070 -81.5590 83° East 529 609 39,000  Level FlightAware ADS-B
Fri 10:58:41 PM 42.3190 -81.4210 83° East 527 606 39,000  Level FlightAware ADS-B
Fri 10:59:28 PM 42.3330 -81.2720 83° East 527 606 39,000  Level FlightAware ADS-B
Fri 11:00:10 PM 42.3450 -81.1350 83° East 526 605 39,000  Level FlightAware ADS-B
Fri 11:00:53 PM 42.3560 -80.9980 84° East 526 605 39,000  Level FlightAware ADS-B
Fri 11:01:26 PM 42.3660 -80.8890 83° East 525 604 39,000  Level FlightAware ADS-B
Fri 11:02:04 PM 42.3760 -80.7630 84° East 525 604 39,000  Level FlightAware ADS-B
Fri 11:02:46 PM 42.3880 -80.6270 83° East 525 604 39,000  Level FlightAware ADS-B
Fri 11:03:41 PM 42.4020 -80.4530 84° East 525 604 39,000  Level FlightAware ADS-B
Fri 11:04:18 PM 42.4120 -80.3280 84° East 525 604 39,000  Level FlightAware ADS-B
Fri 11:04:59 PM 42.4230 -80.1910 84° East 526 605 39,000  Level FlightAware ADS-B
Fri 11:05:41 PM 42.4340 -80.0530 84° East 525 604 39,000  Level FlightAware ADS-B
Fri 11:06:28 PM 42.4450 -79.9070 84° East 525 604 39,000  Level FlightAware ADS-B
Fri 11:07:18 PM 42.4580 -79.7420 84° East 525 604 39,000  Level FlightAware ADS-B
Fri 11:08:00 PM 42.4680 -79.6030 84° East 524 603 39,000  Level FlightAware ADS-B
Fri 11:08:43 PM 42.4800 -79.4370 84° East 524 603 39,000  Level FlightAware ADS-B
Fri 11:09:25 PM 42.4900 -79.3030 84° East 524 603 39,000  Level FlightAware ADS-B
Fri 11:10:03 PM 42.4990 -79.1770 84° East 523 602 39,000  Level FlightAware ADS-B
Fri 11:10:39 PM 42.5070 -79.0610 85° East 523 602 39,000  Level FlightAware ADS-B
Fri 11:11:37 PM 42.5170 -78.8710 86° East 524 603 39,000  Level FlightAware ADS-B
Fri 11:12:19 PM 42.5240 -78.7340 86° East 526 605 39,000  Level FlightAware ADS-B
Fri 11:12:59 PM 42.5300 -78.6010 86° East 526 605 39,000  Level FlightAware ADS-B
Fri 11:13:41 PM 42.5360 -78.4660 87° East 527 606 39,000  Level FlightAware ADS-B
Fri 11:14:25 PM 42.5430 -78.3200 86° East 527 606 39,000  Level FlightAware ADS-B
Fri 11:15:05 PM 42.5480 -78.1900 87° East 525 604 39,000 -79 Level FlightAware ADS-B
Fri 11:15:41 PM 42.5530 -78.0720 87° East 507 583 38,900 -947 Descending FlightAware ADS-B
Fri 11:16:21 PM 42.5580 -77.9490 87° East 509 586 37,800 -1,463 Descending FlightAware ADS-B
Fri 11:17:03 PM 42.5640 -77.8140 87° East 516 594 36,900 -1,231 Descending FlightAware ADS-B
Fri 11:17:39 PM 42.5690 -77.6960 87° East 518 596 36,200 -1,063 Descending FlightAware ADS-B
Fri 11:18:22 PM 42.5740 -77.5570 87° East 512 589 35,500 -940 Descending FlightAware ADS-B
Fri 11:19:02 PM 42.5790 -77.4280 87° East 510 587 34,900 -929 Descending FlightAware ADS-B
Fri 11:19:46 PM 42.5840 -77.2870 87° East 507 583 34,200 -977 Descending FlightAware ADS-B
Fri 11:20:28 PM 42.5880 -77.1550 88° East 506 582 33,500 -977 Descending FlightAware ADS-B
Fri 11:21:12 PM 42.5930 -77.0150 87° East 502 578 32,800 -929 Descending FlightAware ADS-B
Fri 11:21:52 PM 42.5980 -76.8880 87° East 503 579 32,200 -929 Descending FlightAware ADS-B
Fri 11:22:36 PM 42.6020 -76.7530 88° East 508 585 31,500 -1,000 Descending FlightAware ADS-B
Fri 11:23:16 PM 42.6060 -76.6240 88° East 506 582 30,800 -975 Descending FlightAware ADS-B
Fri 11:23:56 PM 42.6100 -76.4980 87° East 507 583 30,200 -929 Descending FlightAware ADS-B
Fri 11:24:40 PM 42.6140 -76.3560 88° East 509 586 29,500 -847 Descending FlightAware ADS-B
Fri 11:25:21 PM 42.6170 -76.2300 88° East 509 586 29,000 -357 Descending FlightAware ADS-B
Fri 11:26:04 PM 42.6210 -76.0880 88° East 507 583 29,000  Level FlightAware ADS-B
Fri 11:26:40 PM 42.6230 -75.9760 89° East 508 585 29,000  Level FlightAware ADS-B
Fri 11:27:20 PM 42.6260 -75.8470 88° East 509 586 29,000 -1,500 Level FlightAware ADS-B
Fri 11:28:04 PM 42.6300 -75.7060 88° East 511 588 26,900 -2,929 Descending FlightAware ADS-B
Fri 11:28:44 PM 42.6320 -75.5810 89° East 502 578 24,900 -2,929 Descending FlightAware ADS-B
Fri 11:29:28 PM 42.6350 -75.4430 88° East 491 565 22,800 -2,786 Descending FlightAware ADS-B
Fri 11:30:08 PM 42.6370 -75.3230 89° East 480 552 21,000 -2,741 Descending FlightAware ADS-B
Fri 11:30:49 PM 42.6390 -75.2050 89° East 468 539 19,100 -2,707 Descending FlightAware ADS-B
Fri 11:31:30 PM 42.6410 -75.0840 89° East 455 524 17,300 -2,741 Descending FlightAware ADS-B
Fri 11:32:10 PM 42.6430 -74.9710 89° East 449 517 15,400 -2,917 Descending FlightAware ADS-B
Fri 11:32:42 PM 42.6450 -74.8790 88° East 443 510 13,800 -1,185 Descending FlightAware ADS-B
Fri 11:33:31 PM 42.6480 -74.7630 88° East 443 510 13,800  Level FlightAware ADS-B
Fri 11:34:08 PM 42.6500 -74.6750 88° East 443 510 13,800 -1,670 Level FlightAware ADS-B
Fri 11:35:08 PM 42.6503 -74.5206 88° East 383 441 11,100 -1,700 Descending Boston Center
Fri 11:36:08 PM 42.6481 -74.4019 91° East 337 388 10,400 -1,400 Descending Boston Center
Fri 11:37:08 PM 42.6419 -74.2775 94° East 324 373 8,300 -1,850 Descending Boston Center
Fri 11:38:08 PM 42.6353 -74.1617 94° East 319 367 6,700 -1,350 Descending Boston Center
Fri 11:39:08 PM 42.6283 -74.0656 96° East 303 349 5,600 -1,250 Descending Boston Center
Fri 11:40:08 PM 42.6217 -73.9608 95° East 283 326 4,200 -1,227 Descending Boston Center
Fri 11:41:20 PM 42.6353 -73.8708 78° East 259 298 2,900 -909 Descending Boston Center
Fri 11:42:20 PM 42.6492 -73.7528 81° East 242 278 2,200 -1,062 Descending Boston Center
Fri 11:43:30 PM 42.7236 -73.8081 331° Northwest 144 166 600 -1,371 Descending Boston Center

Login

Don't have an account? Register now (free) for customized features, flight alerts, and more!